sensor_id;sensor_type;location;lat;lon;timestamp;P1;durP1;ratioP1;P2;durP2;ratioP2
15102;SDS011;7652;53.584;9.998;2022-10-12T00:01:42;2.77;;;2.27;;
15102;SDS011;7652;53.584;9.998;2022-10-12T00:04:46;3.30;;;2.70;;
15102;SDS011;7652;53.584;9.998;2022-10-12T00:07:49;4.07;;;2.50;;
15102;SDS011;7652;53.584;9.998;2022-10-12T00:10:52;3.73;;;3.00;;
15102;SDS011;7652;53.584;9.998;2022-10-12T00:13:56;4.47;;;2.50;;
15102;SDS011;7652;53.584;9.998;2022-10-12T00:17:00;4.10;;;3.23;;
15102;SDS011;7652;53.584;9.998;2022-10-12T00:20:05;4.87;;;2.47;;
15102;SDS011;7652;53.584;9.998;2022-10-12T00:23:09;5.03;;;3.10;;
15102;SDS011;7652;53.584;9.998;2022-10-12T00:26:13;2.77;;;2.30;;
15102;SDS011;7652;53.584;9.998;2022-10-12T00:29:17;5.20;;;2.67;;
15102;SDS011;7652;53.584;9.998;2022-10-12T00:32:20;3.67;;;2.40;;
15102;SDS011;7652;53.584;9.998;2022-10-12T00:35:26;3.90;;;2.60;;
15102;SDS011;7652;53.584;9.998;2022-10-12T00:38:29;5.73;;;2.90;;
15102;SDS011;7652;53.584;9.998;2022-10-12T00:41:33;4.73;;;2.40;;
15102;SDS011;7652;53.584;9.998;2022-10-12T00:44:40;2.73;;;2.17;;
15102;SDS011;7652;53.584;9.998;2022-10-12T00:47:46;2.93;;;1.97;;
15102;SDS011;7652;53.584;9.998;2022-10-12T00:50:53;4.53;;;2.13;;
15102;SDS011;7652;53.584;9.998;2022-10-12T00:53:58;5.40;;;2.70;;
15102;SDS011;7652;53.584;9.998;2022-10-12T00:57:05;3.07;;;2.77;;
15102;SDS011;7652;53.584;9.998;2022-10-12T01:00:10;3.50;;;2.80;;
15102;SDS011;7652;53.584;9.998;2022-10-12T01:03:15;4.17;;;2.50;;
15102;SDS011;7652;53.584;9.998;2022-10-12T01:06:22;4.00;;;2.73;;
15102;SDS011;7652;53.584;9.998;2022-10-12T01:09:25;3.77;;;2.57;;
15102;SDS011;7652;53.584;9.998;2022-10-12T01:12:29;2.63;;;2.20;;
15102;SDS011;7652;53.584;9.998;2022-10-12T01:15:35;3.20;;;2.37;;
15102;SDS011;7652;53.584;9.998;2022-10-12T01:18:42;4.13;;;2.90;;
15102;SDS011;7652;53.584;9.998;2022-10-12T01:21:53;4.47;;;2.93;;
15102;SDS011;7652;53.584;9.998;2022-10-12T01:25:02;3.63;;;2.37;;
15102;SDS011;7652;53.584;9.998;2022-10-12T01:28:17;3.80;;;2.47;;
15102;SDS011;7652;53.584;9.998;2022-10-12T01:31:28;2.20;;;2.00;;
15102;SDS011;7652;53.584;9.998;2022-10-12T01:34:38;3.83;;;2.33;;
15102;SDS011;7652;53.584;9.998;2022-10-12T01:37:47;3.93;;;2.53;;
15102;SDS011;7652;53.584;9.998;2022-10-12T01:40:58;3.83;;;2.57;;
15102;SDS011;7652;53.584;9.998;2022-10-12T01:44:06;4.40;;;2.63;;
15102;SDS011;7652;53.584;9.998;2022-10-12T01:47:10;2.60;;;2.37;;
15102;SDS011;7652;53.584;9.998;2022-10-12T01:50:13;5.60;;;2.37;;
15102;SDS011;7652;53.584;9.998;2022-10-12T01:53:20;5.03;;;2.93;;
15102;SDS011;7652;53.584;9.998;2022-10-12T01:56:30;5.40;;;2.30;;
15102;SDS011;7652;53.584;9.998;2022-10-12T01:59:42;4.27;;;2.70;;
15102;SDS011;7652;53.584;9.998;2022-10-12T02:02:54;3.40;;;2.67;;
15102;SDS011;7652;53.584;9.998;2022-10-12T02:06:04;2.70;;;2.20;;
15102;SDS011;7652;53.584;9.998;2022-10-12T02:09:11;3.97;;;2.50;;
15102;SDS011;7652;53.584;9.998;2022-10-12T02:12:20;2.63;;;2.43;;
15102;SDS011;7652;53.584;9.998;2022-10-12T02:15:25;3.80;;;2.77;;
15102;SDS011;7652;53.584;9.998;2022-10-12T02:18:32;3.60;;;2.40;;
15102;SDS011;7652;53.584;9.998;2022-10-12T02:21:40;6.43;;;2.57;;
15102;SDS011;7652;53.584;9.998;2022-10-12T02:24:46;2.87;;;2.40;;
15102;SDS011;7652;53.584;9.998;2022-10-12T02:27:51;3.30;;;2.27;;
15102;SDS011;7652;53.584;9.998;2022-10-12T02:30:59;3.33;;;2.43;;
15102;SDS011;7652;53.584;9.998;2022-10-12T02:34:07;4.90;;;2.50;;
15102;SDS011;7652;53.584;9.998;2022-10-12T02:37:15;4.30;;;2.43;;
15102;SDS011;7652;53.584;9.998;2022-10-12T02:40:30;3.73;;;2.50;;
15102;SDS011;7652;53.584;9.998;2022-10-12T02:43:38;5.80;;;2.73;;
15102;SDS011;7652;53.584;9.998;2022-10-12T02:46:45;3.47;;;2.27;;
15102;SDS011;7652;53.584;9.998;2022-10-12T02:49:51;5.43;;;2.97;;
15102;SDS011;7652;53.584;9.998;2022-10-12T02:52:56;3.60;;;2.70;;
15102;SDS011;7652;53.584;9.998;2022-10-12T02:56:01;2.97;;;2.20;;
15102;SDS011;7652;53.584;9.998;2022-10-12T02:59:06;4.37;;;2.50;;
15102;SDS011;7652;53.584;9.998;2022-10-12T03:02:09;3.27;;;2.77;;
15102;SDS011;7652;53.584;9.998;2022-10-12T03:05:13;5.67;;;2.83;;
15102;SDS011;7652;53.584;9.998;2022-10-12T03:08:16;5.40;;;3.07;;
15102;SDS011;7652;53.584;9.998;2022-10-12T03:11:19;4.13;;;2.93;;
15102;SDS011;7652;53.584;9.998;2022-10-12T03:14:22;6.97;;;3.30;;
15102;SDS011;7652;53.584;9.998;2022-10-12T03:17:27;4.73;;;3.37;;
15102;SDS011;7652;53.584;9.998;2022-10-12T03:20:31;4.17;;;2.77;;
15102;SDS011;7652;53.584;9.998;2022-10-12T03:23:34;3.77;;;2.90;;
15102;SDS011;7652;53.584;9.998;2022-10-12T03:26:38;3.07;;;2.53;;
15102;SDS011;7652;53.584;9.998;2022-10-12T03:29:41;4.13;;;2.80;;
15102;SDS011;7652;53.584;9.998;2022-10-12T03:32:44;4.27;;;2.70;;
15102;SDS011;7652;53.584;9.998;2022-10-12T03:35:48;4.47;;;2.87;;
15102;SDS011;7652;53.584;9.998;2022-10-12T03:38:51;4.70;;;2.90;;
15102;SDS011;7652;53.584;9.998;2022-10-12T03:41:54;5.07;;;2.60;;
15102;SDS011;7652;53.584;9.998;2022-10-12T03:44:57;2.70;;;2.20;;
15102;SDS011;7652;53.584;9.998;2022-10-12T03:48:00;3.87;;;2.53;;
15102;SDS011;7652;53.584;9.998;2022-10-12T03:51:07;4.70;;;2.20;;
15102;SDS011;7652;53.584;9.998;2022-10-12T03:54:10;6.13;;;3.03;;
15102;SDS011;7652;53.584;9.998;2022-10-12T03:57:13;4.73;;;2.93;;
15102;SDS011;7652;53.584;9.998;2022-10-12T04:00:16;5.17;;;2.50;;
15102;SDS011;7652;53.584;9.998;2022-10-12T04:03:19;4.50;;;3.20;;
15102;SDS011;7652;53.584;9.998;2022-10-12T04:06:24;5.20;;;2.67;;
15102;SDS011;7652;53.584;9.998;2022-10-12T04:09:27;6.60;;;3.10;;
15102;SDS011;7652;53.584;9.998;2022-10-12T04:12:30;4.60;;;2.63;;
15102;SDS011;7652;53.584;9.998;2022-10-12T04:15:33;4.27;;;2.33;;
15102;SDS011;7652;53.584;9.998;2022-10-12T04:18:36;2.97;;;2.33;;
15102;SDS011;7652;53.584;9.998;2022-10-12T04:21:40;3.33;;;2.00;;
15102;SDS011;7652;53.584;9.998;2022-10-12T04:24:43;3.60;;;2.60;;
15102;SDS011;7652;53.584;9.998;2022-10-12T04:27:46;2.73;;;2.27;;
15102;SDS011;7652;53.584;9.998;2022-10-12T04:30:49;2.83;;;2.33;;
15102;SDS011;7652;53.584;9.998;2022-10-12T04:33:52;3.90;;;1.90;;
15102;SDS011;7652;53.584;9.998;2022-10-12T04:36:58;4.77;;;2.53;;
15102;SDS011;7652;53.584;9.998;2022-10-12T04:40:01;3.47;;;2.47;;
15102;SDS011;7652;53.584;9.998;2022-10-12T04:43:04;3.87;;;2.27;;
15102;SDS011;7652;53.584;9.998;2022-10-12T04:46:07;5.03;;;2.93;;
15102;SDS011;7652;53.584;9.998;2022-10-12T04:49:10;5.33;;;2.30;;
15102;SDS011;7652;53.584;9.998;2022-10-12T04:52:15;4.40;;;2.70;;
15102;SDS011;7652;53.584;9.998;2022-10-12T04:55:18;3.63;;;2.07;;
15102;SDS011;7652;53.584;9.998;2022-10-12T04:58:21;3.03;;;2.30;;
15102;SDS011;7652;53.584;9.998;2022-10-12T05:01:24;5.43;;;3.63;;
15102;SDS011;7652;53.584;9.998;2022-10-12T05:04:27;5.97;;;3.87;;
15102;SDS011;7652;53.584;9.998;2022-10-12T05:07:31;3.63;;;2.60;;
15102;SDS011;7652;53.584;9.998;2022-10-12T05:10:34;4.27;;;3.40;;
15102;SDS011;7652;53.584;9.998;2022-10-12T05:13:37;3.43;;;2.43;;
15102;SDS011;7652;53.584;9.998;2022-10-12T05:16:40;5.53;;;3.00;;
15102;SDS011;7652;53.584;9.998;2022-10-12T05:19:43;4.57;;;2.93;;
15102;SDS011;7652;53.584;9.998;2022-10-12T05:22:48;5.83;;;2.43;;
15102;SDS011;7652;53.584;9.998;2022-10-12T05:25:52;2.67;;;2.20;;
15102;SDS011;7652;53.584;9.998;2022-10-12T05:28:56;5.93;;;2.23;;
15102;SDS011;7652;53.584;9.998;2022-10-12T05:31:59;5.30;;;2.50;;
15102;SDS011;7652;53.584;9.998;2022-10-12T05:35:02;5.20;;;2.17;;
15102;SDS011;7652;53.584;9.998;2022-10-12T05:38:06;3.83;;;2.37;;
15102;SDS011;7652;53.584;9.998;2022-10-12T05:41:09;3.57;;;2.33;;
15102;SDS011;7652;53.584;9.998;2022-10-12T05:44:12;3.63;;;2.43;;
15102;SDS011;7652;53.584;9.998;2022-10-12T05:47:15;3.17;;;2.20;;
15102;SDS011;7652;53.584;9.998;2022-10-12T05:50:18;4.50;;;2.33;;
15102;SDS011;7652;53.584;9.998;2022-10-12T05:53:23;4.90;;;2.63;;
15102;SDS011;7652;53.584;9.998;2022-10-12T05:56:26;11.20;;;2.97;;
15102;SDS011;7652;53.584;9.998;2022-10-12T05:59:29;2.83;;;1.97;;
15102;SDS011;7652;53.584;9.998;2022-10-12T06:02:32;2.87;;;2.13;;
15102;SDS011;7652;53.584;9.998;2022-10-12T06:05:36;5.20;;;2.10;;
15102;SDS011;7652;53.584;9.998;2022-10-12T06:08:40;7.00;;;2.67;;
15102;SDS011;7652;53.584;9.998;2022-10-12T06:11:43;4.23;;;2.63;;
15102;SDS011;7652;53.584;9.998;2022-10-12T06:14:46;2.87;;;2.40;;
15102;SDS011;7652;53.584;9.998;2022-10-12T06:17:50;2.87;;;2.40;;
15102;SDS011;7652;53.584;9.998;2022-10-12T06:20:53;6.20;;;2.10;;
15102;SDS011;7652;53.584;9.998;2022-10-12T06:24:18;3.47;;;2.30;;
15102;SDS011;7652;53.584;9.998;2022-10-12T06:27:21;3.63;;;2.40;;
15102;SDS011;7652;53.584;9.998;2022-10-12T06:30:25;3.70;;;2.53;;
15102;SDS011;7652;53.584;9.998;2022-10-12T06:33:28;3.03;;;2.70;;
15102;SDS011;7652;53.584;9.998;2022-10-12T06:36:31;5.23;;;2.70;;
15102;SDS011;7652;53.584;9.998;2022-10-12T06:39:36;4.50;;;2.90;;
15102;SDS011;7652;53.584;9.998;2022-10-12T06:42:39;4.87;;;3.70;;
15102;SDS011;7652;53.584;9.998;2022-10-12T06:45:42;5.43;;;3.50;;
15102;SDS011;7652;53.584;9.998;2022-10-12T06:48:45;8.70;;;3.80;;
15102;SDS011;7652;53.584;9.998;2022-10-12T06:51:48;4.50;;;2.73;;
15102;SDS011;7652;53.584;9.998;2022-10-12T06:54:52;5.10;;;3.40;;
15102;SDS011;7652;53.584;9.998;2022-10-12T06:57:55;4.40;;;2.67;;
15102;SDS011;7652;53.584;9.998;2022-10-12T07:01:00;2.90;;;2.60;;
15102;SDS011;7652;53.584;9.998;2022-10-12T07:04:04;4.73;;;2.73;;
15102;SDS011;7652;53.584;9.998;2022-10-12T07:07:07;3.27;;;2.40;;
15102;SDS011;7652;53.584;9.998;2022-10-12T07:10:11;5.87;;;2.10;;
15102;SDS011;7652;53.584;9.998;2022-10-12T07:13:14;2.60;;;1.80;;
15102;SDS011;7652;53.584;9.998;2022-10-12T07:16:17;4.83;;;2.77;;
15102;SDS011;7652;53.584;9.998;2022-10-12T07:19:20;4.27;;;1.83;;
15102;SDS011;7652;53.584;9.998;2022-10-12T07:22:23;4.40;;;2.00;;
15102;SDS011;7652;53.584;9.998;2022-10-12T07:25:29;3.73;;;1.70;;
15102;SDS011;7652;53.584;9.998;2022-10-12T07:28:32;1.90;;;1.80;;
15102;SDS011;7652;53.584;9.998;2022-10-12T07:31:36;3.03;;;1.47;;
15102;SDS011;7652;53.584;9.998;2022-10-12T07:34:39;5.30;;;1.60;;
15102;SDS011;7652;53.584;9.998;2022-10-12T07:37:42;5.20;;;1.63;;
15102;SDS011;7652;53.584;9.998;2022-10-12T07:40:47;5.03;;;1.60;;
15102;SDS011;7652;53.584;9.998;2022-10-12T07:43:53;3.77;;;1.67;;
15102;SDS011;7652;53.584;9.998;2022-10-12T07:46:57;2.90;;;1.67;;
15102;SDS011;7652;53.584;9.998;2022-10-12T07:50:00;6.67;;;1.87;;
15102;SDS011;7652;53.584;9.998;2022-10-12T07:53:03;2.73;;;1.80;;
15102;SDS011;7652;53.584;9.998;2022-10-12T07:56:11;3.03;;;1.50;;
15102;SDS011;7652;53.584;9.998;2022-10-12T07:59:16;4.23;;;1.70;;
15102;SDS011;7652;53.584;9.998;2022-10-12T08:02:19;5.17;;;1.80;;
15102;SDS011;7652;53.584;9.998;2022-10-12T08:05:22;3.93;;;1.57;;
15102;SDS011;7652;53.584;9.998;2022-10-12T08:08:26;3.13;;;1.73;;
15102;SDS011;7652;53.584;9.998;2022-10-12T08:11:30;5.80;;;2.17;;
15102;SDS011;7652;53.584;9.998;2022-10-12T08:14:33;4.37;;;1.93;;
15102;SDS011;7652;53.584;9.998;2022-10-12T08:17:36;2.80;;;1.50;;
15102;SDS011;7652;53.584;9.998;2022-10-12T08:20:39;3.80;;;1.80;;
15102;SDS011;7652;53.584;9.998;2022-10-12T08:23:42;4.60;;;1.77;;
15102;SDS011;7652;53.584;9.998;2022-10-12T08:26:47;3.07;;;1.80;;
15102;SDS011;7652;53.584;9.998;2022-10-12T08:29:50;4.97;;;1.73;;
15102;SDS011;7652;53.584;9.998;2022-10-12T08:32:53;4.23;;;2.07;;
15102;SDS011;7652;53.584;9.998;2022-10-12T08:35:58;5.47;;;2.00;;
15102;SDS011;7652;53.584;9.998;2022-10-12T08:39:03;2.93;;;1.47;;
15102;SDS011;7652;53.584;9.998;2022-10-12T08:42:12;3.77;;;1.90;;
15102;SDS011;7652;53.584;9.998;2022-10-12T08:45:26;4.57;;;1.83;;
15102;SDS011;7652;53.584;9.998;2022-10-12T08:48:39;3.17;;;1.50;;
15102;SDS011;7652;53.584;9.998;2022-10-12T08:51:47;4.83;;;1.70;;
15102;SDS011;7652;53.584;9.998;2022-10-12T08:54:53;3.53;;;1.90;;
15102;SDS011;7652;53.584;9.998;2022-10-12T08:58:02;4.00;;;1.50;;
15102;SDS011;7652;53.584;9.998;2022-10-12T09:01:09;4.73;;;2.00;;
15102;SDS011;7652;53.584;9.998;2022-10-12T09:04:22;4.10;;;1.90;;
15102;SDS011;7652;53.584;9.998;2022-10-12T09:07:41;5.70;;;2.00;;
15102;SDS011;7652;53.584;9.998;2022-10-12T09:10:53;7.03;;;2.10;;
15102;SDS011;7652;53.584;9.998;2022-10-12T09:14:08;4.70;;;1.83;;
15102;SDS011;7652;53.584;9.998;2022-10-12T09:17:20;3.23;;;1.57;;
15102;SDS011;7652;53.584;9.998;2022-10-12T09:20:28;2.67;;;1.73;;
15102;SDS011;7652;53.584;9.998;2022-10-12T09:23:34;3.00;;;1.57;;
15102;SDS011;7652;53.584;9.998;2022-10-12T09:26:40;5.10;;;1.70;;
15102;SDS011;7652;53.584;9.998;2022-10-12T09:29:47;3.40;;;1.90;;
15102;SDS011;7652;53.584;9.998;2022-10-12T09:33:02;4.00;;;1.43;;
15102;SDS011;7652;53.584;9.998;2022-10-12T09:36:14;4.47;;;1.43;;
15102;SDS011;7652;53.584;9.998;2022-10-12T09:39:22;6.50;;;1.50;;
15102;SDS011;7652;53.584;9.998;2022-10-12T09:42:32;4.47;;;1.53;;
15102;SDS011;7652;53.584;9.998;2022-10-12T09:45:37;3.07;;;1.63;;
15102;SDS011;7652;53.584;9.998;2022-10-12T09:48:48;6.47;;;1.53;;
15102;SDS011;7652;53.584;9.998;2022-10-12T09:51:58;4.17;;;1.40;;
15102;SDS011;7652;53.584;9.998;2022-10-12T09:55:03;2.37;;;1.20;;
15102;SDS011;7652;53.584;9.998;2022-10-12T09:58:11;3.53;;;1.43;;
15102;SDS011;7652;53.584;9.998;2022-10-12T10:01:23;5.83;;;1.67;;
15102;SDS011;7652;53.584;9.998;2022-10-12T10:04:28;4.77;;;2.10;;
15102;SDS011;7652;53.584;9.998;2022-10-12T10:07:31;3.57;;;1.60;;
15102;SDS011;7652;53.584;9.998;2022-10-12T10:10:35;3.77;;;1.20;;
15102;SDS011;7652;53.584;9.998;2022-10-12T10:13:38;7.53;;;1.33;;
15102;SDS011;7652;53.584;9.998;2022-10-12T10:16:50;4.27;;;1.50;;
15102;SDS011;7652;53.584;9.998;2022-10-12T10:19:55;4.20;;;1.30;;
15102;SDS011;7652;53.584;9.998;2022-10-12T10:22:59;2.50;;;1.30;;
15102;SDS011;7652;53.584;9.998;2022-10-12T10:26:05;2.73;;;1.03;;
15102;SDS011;7652;53.584;9.998;2022-10-12T10:29:15;2.00;;;1.23;;
15102;SDS011;7652;53.584;9.998;2022-10-12T10:32:28;3.87;;;1.43;;
15102;SDS011;7652;53.584;9.998;2022-10-12T10:35:31;3.63;;;1.50;;
15102;SDS011;7652;53.584;9.998;2022-10-12T10:38:44;6.00;;;1.20;;
15102;SDS011;7652;53.584;9.998;2022-10-12T10:41:55;3.60;;;1.23;;
15102;SDS011;7652;53.584;9.998;2022-10-12T10:45:11;3.90;;;1.10;;
15102;SDS011;7652;53.584;9.998;2022-10-12T10:48:28;2.17;;;1.20;;
15102;SDS011;7652;53.584;9.998;2022-10-12T10:51:39;6.17;;;1.40;;
15102;SDS011;7652;53.584;9.998;2022-10-12T10:54:45;5.27;;;1.10;;
15102;SDS011;7652;53.584;9.998;2022-10-12T10:57:53;3.87;;;1.30;;
15102;SDS011;7652;53.584;9.998;2022-10-12T11:01:04;5.63;;;1.73;;
15102;SDS011;7652;53.584;9.998;2022-10-12T11:04:18;3.03;;;1.10;;
15102;SDS011;7652;53.584;9.998;2022-10-12T11:07:25;4.23;;;1.30;;
15102;SDS011;7652;53.584;9.998;2022-10-12T11:10:32;2.73;;;1.00;;
15102;SDS011;7652;53.584;9.998;2022-10-12T11:13:42;3.73;;;1.07;;
15102;SDS011;7652;53.584;9.998;2022-10-12T11:16:50;1.93;;;1.17;;
15102;SDS011;7652;53.584;9.998;2022-10-12T11:20:00;4.67;;;1.20;;
15102;SDS011;7652;53.584;9.998;2022-10-12T11:23:21;6.83;;;1.27;;
15102;SDS011;7652;53.584;9.998;2022-10-12T11:26:30;2.03;;;1.10;;
15102;SDS011;7652;53.584;9.998;2022-10-12T11:29:38;2.00;;;0.90;;
15102;SDS011;7652;53.584;9.998;2022-10-12T11:32:42;5.63;;;1.63;;
15102;SDS011;7652;53.584;9.998;2022-10-12T11:35:50;4.03;;;1.17;;
15102;SDS011;7652;53.584;9.998;2022-10-12T11:38:56;5.13;;;1.20;;
15102;SDS011;7652;53.584;9.998;2022-10-12T11:42:09;3.67;;;1.27;;
15102;SDS011;7652;53.584;9.998;2022-10-12T11:45:23;2.03;;;1.17;;
15102;SDS011;7652;53.584;9.998;2022-10-12T11:48:30;3.13;;;1.40;;
15102;SDS011;7652;53.584;9.998;2022-10-12T11:51:39;1.77;;;0.97;;
15102;SDS011;7652;53.584;9.998;2022-10-12T11:54:46;4.53;;;1.47;;
15102;SDS011;7652;53.584;9.998;2022-10-12T11:57:54;4.47;;;2.60;;
15102;SDS011;7652;53.584;9.998;2022-10-12T12:01:09;2.00;;;1.17;;
15102;SDS011;7652;53.584;9.998;2022-10-12T12:04:27;2.40;;;0.90;;
15102;SDS011;7652;53.584;9.998;2022-10-12T12:07:50;3.70;;;1.00;;
15102;SDS011;7652;53.584;9.998;2022-10-12T12:11:02;2.97;;;1.30;;
15102;SDS011;7652;53.584;9.998;2022-10-12T12:18:08;2.47;;;1.27;;
15102;SDS011;7652;53.584;9.998;2022-10-12T12:21:13;2.60;;;1.17;;
15102;SDS011;7652;53.584;9.998;2022-10-12T12:24:18;2.33;;;1.13;;
15102;SDS011;7652;53.584;9.998;2022-10-12T12:27:22;1.60;;;0.83;;
15102;SDS011;7652;53.584;9.998;2022-10-12T12:30:32;0.97;;;0.80;;
15102;SDS011;7652;53.584;9.998;2022-10-12T12:33:38;1.73;;;0.77;;
15102;SDS011;7652;53.584;9.998;2022-10-12T12:36:43;4.13;;;1.20;;
15102;SDS011;7652;53.584;9.998;2022-10-12T12:39:53;3.27;;;1.20;;
15102;SDS011;7652;53.584;9.998;2022-10-12T12:46:22;2.80;;;1.17;;
15102;SDS011;7652;53.584;9.998;2022-10-12T12:49:28;1.90;;;1.13;;
15102;SDS011;7652;53.584;9.998;2022-10-12T12:52:41;3.17;;;1.40;;
15102;SDS011;7652;53.584;9.998;2022-10-12T12:55:50;2.17;;;1.30;;
15102;SDS011;7652;53.584;9.998;2022-10-12T12:59:10;1.67;;;1.27;;
15102;SDS011;7652;53.584;9.998;2022-10-12T13:06:28;1.17;;;0.90;;
15102;SDS011;7652;53.584;9.998;2022-10-12T13:10:04;5.57;;;1.27;;
15102;SDS011;7652;53.584;9.998;2022-10-12T13:13:31;2.53;;;1.00;;
15102;SDS011;7652;53.584;9.998;2022-10-12T13:16:59;2.37;;;1.10;;
15102;SDS011;7652;53.584;9.998;2022-10-12T13:20:31;3.80;;;1.70;;
15102;SDS011;7652;53.584;9.998;2022-10-12T13:23:36;1.83;;;1.00;;
15102;SDS011;7652;53.584;9.998;2022-10-12T13:26:39;1.70;;;1.10;;
15102;SDS011;7652;53.584;9.998;2022-10-12T13:29:47;3.37;;;1.17;;
15102;SDS011;7652;53.584;9.998;2022-10-12T13:32:58;3.30;;;1.10;;
15102;SDS011;7652;53.584;9.998;2022-10-12T13:36:09;2.10;;;1.10;;
15102;SDS011;7652;53.584;9.998;2022-10-12T13:39:20;1.93;;;1.10;;
15102;SDS011;7652;53.584;9.998;2022-10-12T13:42:24;2.73;;;1.13;;
15102;SDS011;7652;53.584;9.998;2022-10-12T13:45:33;2.30;;;1.20;;
15102;SDS011;7652;53.584;9.998;2022-10-12T13:48:35;1.90;;;1.07;;
15102;SDS011;7652;53.584;9.998;2022-10-12T13:51:59;3.80;;;1.53;;
15102;SDS011;7652;53.584;9.998;2022-10-12T13:55:13;1.97;;;1.00;;
15102;SDS011;7652;53.584;9.998;2022-10-12T13:58:19;1.53;;;0.83;;
15102;SDS011;7652;53.584;9.998;2022-10-12T14:01:27;2.20;;;0.77;;
15102;SDS011;7652;53.584;9.998;2022-10-12T14:04:30;3.73;;;1.20;;
15102;SDS011;7652;53.584;9.998;2022-10-12T14:07:35;1.70;;;0.83;;
15102;SDS011;7652;53.584;9.998;2022-10-12T14:10:41;3.47;;;1.03;;
15102;SDS011;7652;53.584;9.998;2022-10-12T14:13:45;1.93;;;0.80;;
15102;SDS011;7652;53.584;9.998;2022-10-12T14:16:50;1.60;;;1.07;;
15102;SDS011;7652;53.584;9.998;2022-10-12T14:19:54;3.63;;;1.27;;
15102;SDS011;7652;53.584;9.998;2022-10-12T14:23:00;2.53;;;0.90;;
15102;SDS011;7652;53.584;9.998;2022-10-12T14:26:13;2.50;;;1.33;;
15102;SDS011;7652;53.584;9.998;2022-10-12T14:29:33;3.17;;;1.10;;
15102;SDS011;7652;53.584;9.998;2022-10-12T14:32:42;2.07;;;1.00;;
15102;SDS011;7652;53.584;9.998;2022-10-12T14:35:46;3.53;;;1.00;;
15102;SDS011;7652;53.584;9.998;2022-10-12T14:38:51;3.77;;;0.87;;
15102;SDS011;7652;53.584;9.998;2022-10-12T14:41:59;1.10;;;0.83;;
15102;SDS011;7652;53.584;9.998;2022-10-12T14:45:21;4.00;;;1.00;;
15102;SDS011;7652;53.584;9.998;2022-10-12T14:48:27;1.33;;;0.80;;
15102;SDS011;7652;53.584;9.998;2022-10-12T14:51:30;2.93;;;1.00;;
15102;SDS011;7652;53.584;9.998;2022-10-12T14:54:34;1.90;;;1.00;;
15102;SDS011;7652;53.584;9.998;2022-10-12T14:57:37;2.57;;;0.80;;
15102;SDS011;7652;53.584;9.998;2022-10-12T15:00:40;3.23;;;0.97;;
15102;SDS011;7652;53.584;9.998;2022-10-12T15:03:45;2.60;;;0.87;;
15102;SDS011;7652;53.584;9.998;2022-10-12T15:06:48;3.30;;;1.00;;
15102;SDS011;7652;53.584;9.998;2022-10-12T15:09:51;3.60;;;0.80;;
15102;SDS011;7652;53.584;9.998;2022-10-12T15:12:54;3.70;;;1.10;;
15102;SDS011;7652;53.584;9.998;2022-10-12T15:15:57;2.10;;;1.10;;
15102;SDS011;7652;53.584;9.998;2022-10-12T15:19:04;0.83;;;0.83;;
15102;SDS011;7652;53.584;9.998;2022-10-12T15:22:07;2.60;;;1.17;;
15102;SDS011;7652;53.584;9.998;2022-10-12T15:25:16;2.83;;;1.07;;
15102;SDS011;7652;53.584;9.998;2022-10-12T15:28:22;0.97;;;0.73;;
15102;SDS011;7652;53.584;9.998;2022-10-12T15:31:25;2.83;;;1.10;;
15102;SDS011;7652;53.584;9.998;2022-10-12T15:34:29;2.20;;;0.70;;
15102;SDS011;7652;53.584;9.998;2022-10-12T15:37:32;3.90;;;0.90;;
15102;SDS011;7652;53.584;9.998;2022-10-12T15:40:35;1.30;;;0.80;;
15102;SDS011;7652;53.584;9.998;2022-10-12T15:43:39;2.67;;;0.87;;
15102;SDS011;7652;53.584;9.998;2022-10-12T15:46:42;4.10;;;1.13;;
15102;SDS011;7652;53.584;9.998;2022-10-12T15:49:47;1.50;;;0.97;;
15102;SDS011;7652;53.584;9.998;2022-10-12T15:52:50;3.07;;;1.10;;
15102;SDS011;7652;53.584;9.998;2022-10-12T15:55:54;2.20;;;1.00;;
15102;SDS011;7652;53.584;9.998;2022-10-12T15:58:57;3.93;;;1.53;;
15102;SDS011;7652;53.584;9.998;2022-10-12T16:02:00;2.23;;;1.13;;
15102;SDS011;7652;53.584;9.998;2022-10-12T16:05:05;1.87;;;1.00;;
15102;SDS011;7652;53.584;9.998;2022-10-12T16:08:15;2.63;;;1.30;;
15102;SDS011;7652;53.584;9.998;2022-10-12T16:11:18;2.57;;;1.03;;
15102;SDS011;7652;53.584;9.998;2022-10-12T16:14:22;3.47;;;1.60;;
15102;SDS011;7652;53.584;9.998;2022-10-12T16:17:25;1.80;;;1.27;;
15102;SDS011;7652;53.584;9.998;2022-10-12T16:20:29;2.43;;;1.20;;
15102;SDS011;7652;53.584;9.998;2022-10-12T16:23:34;2.97;;;1.03;;
15102;SDS011;7652;53.584;9.998;2022-10-12T16:26:38;2.80;;;1.20;;
15102;SDS011;7652;53.584;9.998;2022-10-12T16:29:45;1.87;;;1.10;;
15102;SDS011;7652;53.584;9.998;2022-10-12T16:32:48;3.60;;;1.60;;
15102;SDS011;7652;53.584;9.998;2022-10-12T16:35:52;2.80;;;1.20;;
15102;SDS011;7652;53.584;9.998;2022-10-12T16:38:55;2.60;;;1.20;;
15102;SDS011;7652;53.584;9.998;2022-10-12T16:41:58;2.03;;;1.13;;
15102;SDS011;7652;53.584;9.998;2022-10-12T16:45:02;3.70;;;1.20;;
15102;SDS011;7652;53.584;9.998;2022-10-12T16:48:05;1.83;;;1.40;;
15102;SDS011;7652;53.584;9.998;2022-10-12T16:51:10;2.07;;;1.43;;
15102;SDS011;7652;53.584;9.998;2022-10-12T16:54:14;4.47;;;1.30;;
15102;SDS011;7652;53.584;9.998;2022-10-12T16:57:17;3.13;;;1.43;;
15102;SDS011;7652;53.584;9.998;2022-10-12T17:00:21;1.50;;;1.30;;
15102;SDS011;7652;53.584;9.998;2022-10-12T17:03:24;2.60;;;1.40;;
15102;SDS011;7652;53.584;9.998;2022-10-12T17:06:29;3.63;;;1.80;;
15102;SDS011;7652;53.584;9.998;2022-10-12T17:09:32;2.67;;;1.40;;
15102;SDS011;7652;53.584;9.998;2022-10-12T17:12:35;3.47;;;1.50;;
15102;SDS011;7652;53.584;9.998;2022-10-12T17:15:38;3.73;;;1.60;;
15102;SDS011;7652;53.584;9.998;2022-10-12T17:18:42;3.93;;;1.80;;
15102;SDS011;7652;53.584;9.998;2022-10-12T17:21:46;2.20;;;1.40;;
15102;SDS011;7652;53.584;9.998;2022-10-12T17:24:50;2.33;;;1.63;;
15102;SDS011;7652;53.584;9.998;2022-10-12T17:27:53;3.63;;;1.80;;
15102;SDS011;7652;53.584;9.998;2022-10-12T17:30:56;4.57;;;1.80;;
15102;SDS011;7652;53.584;9.998;2022-10-12T17:34:13;2.50;;;1.37;;
15102;SDS011;7652;53.584;9.998;2022-10-12T17:37:21;3.17;;;1.17;;
15102;SDS011;7652;53.584;9.998;2022-10-12T17:40:24;3.77;;;1.30;;
15102;SDS011;7652;53.584;9.998;2022-10-12T17:43:27;2.23;;;1.60;;
15102;SDS011;7652;53.584;9.998;2022-10-12T17:46:30;2.27;;;1.53;;
15102;SDS011;7652;53.584;9.998;2022-10-12T17:49:33;3.43;;;1.40;;
15102;SDS011;7652;53.584;9.998;2022-10-12T17:52:38;2.43;;;1.53;;
15102;SDS011;7652;53.584;9.998;2022-10-12T17:55:41;4.07;;;2.03;;
15102;SDS011;7652;53.584;9.998;2022-10-12T17:58:51;2.10;;;1.40;;
15102;SDS011;7652;53.584;9.998;2022-10-12T18:01:55;2.10;;;1.63;;
15102;SDS011;7652;53.584;9.998;2022-10-12T18:04:58;1.50;;;1.40;;
15102;SDS011;7652;53.584;9.998;2022-10-12T18:08:02;3.77;;;1.70;;
15102;SDS011;7652;53.584;9.998;2022-10-12T18:11:05;2.80;;;1.97;;
15102;SDS011;7652;53.584;9.998;2022-10-12T18:14:09;5.47;;;2.00;;
15102;SDS011;7652;53.584;9.998;2022-10-12T18:17:13;2.23;;;1.60;;
15102;SDS011;7652;53.584;9.998;2022-10-12T18:24:52;3.07;;;1.87;;
15102;SDS011;7652;53.584;9.998;2022-10-12T18:27:55;3.73;;;1.73;;
15102;SDS011;7652;53.584;9.998;2022-10-12T18:30:58;2.70;;;1.70;;
15102;SDS011;7652;53.584;9.998;2022-10-12T18:34:01;3.83;;;1.70;;
15102;SDS011;7652;53.584;9.998;2022-10-12T18:37:05;3.55;;;2.10;;
15102;SDS011;7652;53.584;9.998;2022-10-12T18:40:10;2.93;;;2.17;;
15102;SDS011;7652;53.584;9.998;2022-10-12T18:43:13;3.73;;;1.93;;
15102;SDS011;7652;53.584;9.998;2022-10-12T18:46:16;2.77;;;1.50;;
15102;SDS011;7652;53.584;9.998;2022-10-12T18:49:19;2.77;;;2.00;;
15102;SDS011;7652;53.584;9.998;2022-10-12T18:52:23;3.33;;;2.00;;
15102;SDS011;7652;53.584;9.998;2022-10-12T18:55:27;3.87;;;2.00;;
15102;SDS011;7652;53.584;9.998;2022-10-12T18:58:30;3.77;;;2.27;;
15102;SDS011;7652;53.584;9.998;2022-10-12T19:01:33;3.07;;;2.20;;
15102;SDS011;7652;53.584;9.998;2022-10-12T19:04:37;2.53;;;2.17;;
15102;SDS011;7652;53.584;9.998;2022-10-12T19:07:40;2.10;;;1.70;;
15102;SDS011;7652;53.584;9.998;2022-10-12T19:10:44;3.13;;;2.20;;
15102;SDS011;7652;53.584;9.998;2022-10-12T19:13:50;3.43;;;2.30;;